Time;durP1;ratioP1;P1;durP2;ratioP2;P2;SDS_P1;SDS_P2;PMS_P1;PMS_P2;Temp;Humidity;BMP_temperature;BMP_pressure;BME280_temperature;BME280_humidity;BME280_pressure;Samples;Min_cycle;Max_cycle;Signal;HPM_P1;HPM_P2
2021/07/03 00:07:19;;;;;;;7.9;6;;;;;;;16.63;100;98351.39;;;;
2021/07/03 00:17:19;;;;;;;7.2;5.1;;;;;;;16.55;100;98355.9;;;;
2021/07/03 00:27:18;;;;;;;10.9;5.6;;;;;;;16.44;100;98352.09;;;;
2021/07/03 00:37:18;;;;;;;8.2;6.2;;;;;;;16.51;100;98356.91;;;;
2021/07/03 00:47:18;;;;;;;12.7;7.7;;;;;;;16.42;100;98350.84;;;;
2021/07/03 00:57:17;;;;;;;10;7.5;;;;;;;16.29;100;98350.15;;;;
2021/07/03 01:07:17;;;;;;;10.7;8.5;;;;;;;16.15;100;98343.55;;;;
2021/07/03 01:17:16;;;;;;;10.7;7.9;;;;;;;16.16;100;98336.98;;;;
2021/07/03 01:27:16;;;;;;;11.1;8.2;;;;;;;16.32;100;98329.61;;;;
2021/07/03 01:37:15;;;;;;;11.4;8.4;;;;;;;16.34;100;98321.91;;;;
2021/07/03 01:47:15;;;;;;;12.6;8.4;;;;;;;16.43;100;98325.23;;;;
2021/07/03 01:57:14;;;;;;;14.7;10.9;;;;;;;16.36;100;98325.05;;;;
2021/07/03 02:07:14;;;;;;;9.5;8.2;;;;;;;16.32;100;98310.58;;;;
2021/07/03 02:17:14;;;;;;;11.7;9.9;;;;;;;16.2;100;98316.12;;;;
2021/07/03 02:27:13;;;;;;;14.4;9.7;;;;;;;16.08;100;98306.9;;;;
2021/07/03 02:37:14;;;;;;;15;12.7;;;;;;;15.96;100;98306.98;;;;
2021/07/03 02:47:12;;;;;;;15.4;13.8;;;;;;;15.97;100;98311.27;;;;
2021/07/03 02:57:12;;;;;;;15.7;13.1;;;;;;;15.92;100;98325.13;;;;
2021/07/03 03:07:11;;;;;;;18.7;13.1;;;;;;;16.02;100;98321.89;;;;
2021/07/03 03:17:11;;;;;;;15.7;12.9;;;;;;;16.15;100;98335.39;;;;
2021/07/03 03:27:10;;;;;;;17.4;14.6;;;;;;;16.26;100;98320.94;;;;
2021/07/03 03:37:10;;;;;;;17.5;14.1;;;;;;;16.3;100;98327.27;;;;
2021/07/03 03:47:09;;;;;;;16.4;13.9;;;;;;;16.32;100;98329.61;;;;
2021/07/03 03:57:28;;;;;;;14.8;13.3;;;;;;;16.39;100;98321.63;;;;
2021/07/03 04:07:08;;;;;;;20;16.3;;;;;;;16.45;100;98323.73;;;;
2021/07/03 04:17:08;;;;;;;21.4;15.6;;;;;;;16.47;100;98326.11;;;;
2021/07/03 04:27:07;;;;;;;20.6;16;;;;;;;16.63;100;98326.11;;;;
2021/07/03 04:37:07;;;;;;;18.3;15.3;;;;;;;16.76;100;98322.95;;;;
2021/07/03 04:47:07;;;;;;;18.1;14.8;;;;;;;16.88;100;98320.11;;;;
2021/07/03 04:57:11;;;;;;;20.6;14.7;;;;;;;17.01;100;98331.66;;;;
2021/07/03 05:07:06;;;;;;;19;14.8;;;;;;;17.27;100;98342.75;;;;
2021/07/03 05:17:06;;;;;;;22.2;16.1;;;;;;;17.66;100;98342.78;;;;
2021/07/03 05:27:05;;;;;;;18.2;15.2;;;;;;;18.29;100;98337.72;;;;
2021/07/03 05:37:06;;;;;;;16.5;12.4;;;;;;;18.39;100;98335.17;;;;
2021/07/03 05:47:05;;;;;;;14.5;12.8;;;;;;;18.36;100;98341.34;;;;
2021/07/03 05:57:05;;;;;;;15.3;12;;;;;;;18.41;100;98332.86;;;;
2021/07/03 06:07:05;;;;;;;16.2;13.4;;;;;;;18.5;100;98338.88;;;;
2021/07/03 06:17:04;;;;;;;12.9;10.2;;;;;;;19.09;100;98354.59;;;;
2021/07/03 06:27:04;;;;;;;13.1;11.1;;;;;;;19.3;100;98367;;;;
2021/07/03 06:37:04;;;;;;;15.8;10.7;;;;;;;19.32;100;98368.2;;;;
2021/07/03 06:47:05;;;;;;;15.2;10.3;;;;;;;19.84;100;98356.38;;;;
2021/07/03 06:57:05;;;;;;;12.6;9.7;;;;;;;19.8;100;98382.09;;;;
2021/07/03 07:07:05;;;;;;;13.8;10.5;;;;;;;19.61;100;98374.83;;;;
2021/07/03 07:17:05;;;;;;;13.8;10.6;;;;;;;19.56;100;98375.17;;;;
2021/07/03 07:27:05;;;;;;;15.2;10.2;;;;;;;19.52;100;98371.6;;;;
2021/07/03 07:37:05;;;;;;;12.4;8.4;;;;;;;19.67;100;98376.09;;;;
2021/07/03 07:47:05;;;;;;;11;8.6;;;;;;;19.98;100;98383.09;;;;
2021/07/03 07:57:05;;;;;;;12.1;10.1;;;;;;;19.83;100;98390.34;;;;
2021/07/03 08:07:05;;;;;;;10.4;9.1;;;;;;;20.44;100;98380.86;;;;
2021/07/03 08:17:05;;;;;;;11.3;7.6;;;;;;;20.2;100;98378.64;;;;
2021/07/03 08:27:05;;;;;;;11.7;7.5;;;;;;;20.37;100;98378.85;;;;
2021/07/03 08:37:05;;;;;;;14.2;10.6;;;;;;;20.28;100;98375.62;;;;
2021/07/03 08:47:07;;;;;;;10.3;7.6;;;;;;;19.91;100;98381.07;;;;
2021/07/03 08:57:06;;;;;;;9.8;7.5;;;;;;;20.61;100;98382.18;;;;
2021/07/03 09:07:11;;;;;;;16.5;7.2;;;;;;;19.83;100;98379.41;;;;
2021/07/03 09:17:06;;;;;;;12.2;6.9;;;;;;;20.13;100;98375.83;;;;
2021/07/03 09:27:06;;;;;;;11.3;7.5;;;;;;;20.06;100;98377.31;;;;
2021/07/03 09:37:06;;;;;;;9.7;7.2;;;;;;;19.68;100;98363.22;;;;
2021/07/03 09:47:06;;;;;;;10.1;7.2;;;;;;;19.68;100;98366.72;;;;
2021/07/03 09:57:06;;;;;;;9.9;7.7;;;;;;;20.03;100;98349.91;;;;
2021/07/03 10:07:07;;;;;;;9;6.2;;;;;;;20.75;100;98344.75;;;;
2021/07/03 10:17:06;;;;;;;10;7.3;;;;;;;20.88;100;98337;;;;
2021/07/03 10:27:18;;;;;;;9;6.7;;;;;;;20.88;100;98324.09;;;;
2021/07/03 10:37:07;;;;;;;11.1;6.6;;;;;;;20.74;100;98321.25;;;;
2021/07/03 10:47:07;;;;;;;11.5;7.5;;;;;;;20.48;100;98322.22;;;;
2021/07/03 10:57:09;;;;;;;10.6;7.7;;;;;;;20.75;100;98328.31;;;;
2021/07/03 11:07:09;;;;;;;9.2;6.7;;;;;;;20.79;100;98320.88;;;;
2021/07/03 11:17:08;;;;;;;8.5;5.1;;;;;;;20.97;100;98310.83;;;;
2021/07/03 11:27:08;;;;;;;9.4;6.9;;;;;;;20.71;100;98322.02;;;;
2021/07/03 11:37:08;;;;;;;10.2;5.5;;;;;;;20.6;100;98315.67;;;;
2021/07/03 11:47:08;;;;;;;8.4;5.9;;;;;;;20.96;100;98305.75;;;;
2021/07/03 11:57:09;;;;;;;12.6;6.9;;;;;;;21.8;100;98301.8;;;;
2021/07/03 12:07:09;;;;;;;14.1;6.7;;;;;;;22;100;98309.34;;;;
2021/07/03 12:17:09;;;;;;;11.8;7.8;;;;;;;21.94;100;98315.58;;;;
2021/07/03 12:27:10;;;;;;;7.7;4.9;;;;;;;20.37;100;98321.37;;;;
2021/07/03 12:37:11;;;;;;;11.2;7.7;;;;;;;19.87;100;98306.39;;;;
2021/07/03 12:47:10;;;;;;;11.4;6.6;;;;;;;19.95;100;98297.11;;;;
2021/07/03 12:57:10;;;;;;;13.2;7.6;;;;;;;20.48;100;98291.31;;;;
2021/07/03 13:07:10;;;;;;;10.8;7.5;;;;;;;20.82;100;98294.7;;;;
2021/07/03 13:17:10;;;;;;;23.2;7.1;;;;;;;21.14;100;98290.2;;;;
2021/07/03 13:27:10;;;;;;;10.5;7.2;;;;;;;21.38;100;98295;;;;
2021/07/03 13:37:11;;;;;;;9.9;7.5;;;;;;;21.3;100;98292.63;;;;
2021/07/03 13:47:11;;;;;;;13.5;5.9;;;;;;;21.05;100;98290.53;;;;
2021/07/03 13:57:11;;;;;;;9.2;6.8;;;;;;;20.59;100;98314.88;;;;
2021/07/03 14:07:12;;;;;;;9.3;7.3;;;;;;;20.15;100;98283.2;;;;
2021/07/03 14:17:12;;;;;;;8.3;6.2;;;;;;;20.48;100;98283.89;;;;
2021/07/03 14:27:12;;;;;;;10.1;7;;;;;;;20.48;100;98274.89;;;;
2021/07/03 14:37:12;;;;;;;11.3;7;;;;;;;20.76;100;98280.56;;;;
2021/07/03 14:47:18;;;;;;;13.5;7.4;;;;;;;20.82;100;98261.83;;;;
2021/07/03 14:57:13;;;;;;;8.8;6.3;;;;;;;20.76;100;98260.59;;;;
2021/07/03 15:07:13;;;;;;;8.7;7.5;;;;;;;20.8;100;98264.94;;;;
2021/07/03 15:17:13;;;;;;;10.9;7.2;;;;;;;20.73;100;98264.89;;;;
2021/07/03 15:27:14;;;;;;;9.8;7.8;;;;;;;20.56;100;98266.36;;;;
2021/07/03 15:37:14;;;;;;;9.3;5.5;;;;;;;20.28;100;98273.56;;;;
2021/07/03 15:47:14;;;;;;;10.1;5.8;;;;;;;20.35;100;98266.2;;;;
2021/07/03 15:57:15;;;;;;;10.5;7.5;;;;;;;20.26;100;98262.98;;;;
2021/07/03 16:07:15;;;;;;;12.9;7.6;;;;;;;20.41;100;98263.91;;;;
2021/07/03 16:17:15;;;;;;;10.9;8.4;;;;;;;20.48;100;98261.98;;;;
2021/07/03 16:27:15;;;;;;;12.4;9;;;;;;;20.62;100;98264.03;;;;
2021/07/03 16:37:15;;;;;;;11.1;6.7;;;;;;;20.75;100;98259.84;;;;
2021/07/03 16:47:16;;;;;;;18.2;10;;;;;;;21.01;100;98267.8;;;;
2021/07/03 16:57:16;;;;;;;13.5;8.1;;;;;;;21.12;100;98267.88;;;;
2021/07/03 17:07:16;;;;;;;9.8;8;;;;;;;21.09;100;98268.63;;;;
2021/07/03 17:17:16;;;;;;;11.5;8;;;;;;;20.94;100;98262.28;;;;
2021/07/03 17:27:16;;;;;;;13.4;9.3;;;;;;;20.84;100;98276.7;;;;
2021/07/03 17:37:17;;;;;;;10.7;8.2;;;;;;;20.84;100;98279.45;;;;
2021/07/03 17:47:17;;;;;;;8.9;6.9;;;;;;;20.66;100;98270.33;;;;
2021/07/03 17:57:17;;;;;;;10.6;7.9;;;;;;;20.27;100;98263.77;;;;
2021/07/03 18:07:17;;;;;;;12.2;8;;;;;;;20.14;100;98276.14;;;;
2021/07/03 18:17:17;;;;;;;11.5;7.4;;;;;;;19.85;100;98264.97;;;;
2021/07/03 18:27:19;;;;;;;9.1;6.8;;;;;;;19.75;100;98268.36;;;;
2021/07/03 18:37:18;;;;;;;11.6;6.8;;;;;;;19.7;100;98274.17;;;;
2021/07/03 18:47:18;;;;;;;10.4;8.3;;;;;;;19.51;100;98275.14;;;;
2021/07/03 18:57:18;;;;;;;19;12.6;;;;;;;19.31;100;98278.38;;;;
2021/07/03 19:07:18;;;;;;;16.8;11.9;;;;;;;19.12;100;98282.06;;;;
2021/07/03 19:17:18;;;;;;;24.3;17.6;;;;;;;18.8;100;98289.03;;;;
2021/07/03 19:27:18;;;;;;;19.9;13.3;;;;;;;18.75;100;98284.66;;;;
2021/07/03 19:37:17;;;;;;;13.8;9.4;;;;;;;18.55;100;98291.39;;;;
2021/07/03 19:47:17;;;;;;;16.4;11.3;;;;;;;18.5;100;98287.02;;;;
2021/07/03 19:57:17;;;;;;;12.5;9.9;;;;;;;18.48;100;98285.79;;;;
2021/07/03 20:07:17;;;;;;;9.4;8.2;;;;;;;18.37;100;98285.62;;;;
2021/07/03 20:17:17;;;;;;;10.8;9.2;;;;;;;18.34;100;98280.9;;;;
2021/07/03 20:27:17;;;;;;;14.4;10.4;;;;;;;18.18;100;98293.1;;;;
2021/07/03 20:37:17;;;;;;;11.5;10.3;;;;;;;18.03;100;98290.13;;;;
2021/07/03 20:47:17;;;;;;;14;11;;;;;;;17.98;100;98284.96;;;;
2021/07/03 20:57:18;;;;;;;16.7;11.9;;;;;;;17.96;100;98291.94;;;;
2021/07/03 21:07:16;;;;;;;18;16.1;;;;;;;17.86;100;98293.33;;;;
2021/07/03 21:17:16;;;;;;;23.4;16.7;;;;;;;17.78;100;98293.55;;;;
2021/07/03 21:27:16;;;;;;;26;17.1;;;;;;;17.68;100;98288.69;;;;
2021/07/03 21:37:16;;;;;;;17.7;14.4;;;;;;;17.6;100;98285.04;;;;
2021/07/03 21:47:16;;;;;;;14.1;10.9;;;;;;;17.52;100;98286.05;;;;
2021/07/03 21:57:15;;;;;;;13;11.6;;;;;;;17.54;100;98294.63;;;;
2021/07/03 22:07:15;;;;;;;15.4;11.6;;;;;;;17.38;100;98288.48;;;;
2021/07/03 22:17:15;;;;;;;13.6;10.3;;;;;;;17.29;100;98296.06;;;;
2021/07/03 22:27:15;;;;;;;17.6;13.5;;;;;;;17.17;100;98282.6;;;;
2021/07/03 22:37:14;;;;;;;15.3;12.7;;;;;;;17.14;100;98286.84;;;;
2021/07/03 22:47:14;;;;;;;15.7;12.4;;;;;;;17.27;100;98288.27;;;;
2021/07/03 22:57:14;;;;;;;17.8;11.4;;;;;;;17.42;100;98289.34;;;;
2021/07/03 23:07:14;;;;;;;14.1;12.4;;;;;;;17.32;100;98281.75;;;;
2021/07/03 23:17:13;;;;;;;15.9;13.1;;;;;;;17.3;100;98273.14;;;;
2021/07/03 23:27:13;;;;;;;12.7;11.1;;;;;;;17.23;100;98275.72;;;;
2021/07/03 23:37:13;;;;;;;13.6;11.2;;;;;;;17.26;100;98275;;;;
2021/07/03 23:47:12;;;;;;;15.8;12.3;;;;;;;17.14;100;98273.22;;;;
2021/07/03 23:57:12;;;;;;;18.2;10.5;;;;;;;17.01;100;98272.55;;;;
